TimeCST,TemperatureF,Dew PointF,Humidity,Sea Level PressureIn,VisibilityMPH,Wind Direction,Wind SpeedMPH,Gust SpeedMPH,PrecipitationIn,Events,Conditions,WindDirDegrees,DateUTC
12:53 AM,68.0,57.0,68,29.90,10.0,SSE,16.1,23.0,N/A,,Clear,160,2012-11-10 06:53:00
1:53 AM,66.0,57.9,75,29.90,10.0,SSE,12.7,-,N/A,,Clear,160,2012-11-10 07:53:00
2:53 AM,64.9,59.0,81,29.89,10.0,SSE,13.8,-,N/A,,Scattered Clouds,160,2012-11-10 08:53:00
3:09 AM,64.4,59.0,83,29.93,10.0,SSE,13.8,23.0,N/A,,Mostly Cloudy,160,2012-11-10 09:09:00
3:53 AM,66.2,59.0,78,29.92,10.0,South,18.4,25.3,N/A,,Mostly Cloudy,170,2012-11-10 09:53:00
4:15 AM,64.4,59.0,83,29.91,10.0,SSE,16.1,26.5,N/A,,Partly Cloudy,160,2012-11-10 10:15:00
4:53 AM,64.9,59.0,81,29.88,10.0,SSE,15.0,-,N/A,,Clear,160,2012-11-10 10:53:00
5:33 AM,64.4,59.0,83,29.92,10.0,SSE,11.5,-,N/A,,Mostly Cloudy,160,2012-11-10 11:33:00
5:53 AM,64.9,59.0,81,29.89,10.0,SSE,9.2,-,N/A,,Mostly Cloudy,150,2012-11-10 11:53:00
6:53 AM,64.9,59.0,81,29.88,10.0,SSE,15.0,23.0,N/A,,Mostly Cloudy,150,2012-11-10 12:53:00
7:01 AM,64.4,59.0,83,29.92,10.0,SSE,13.8,20.7,N/A,,Scattered Clouds,160,2012-11-10 13:01:00
7:49 AM,66.2,59.0,78,29.93,10.0,SSE,15.0,21.9,N/A,,Mostly Cloudy,160,2012-11-10 13:49:00
7:53 AM,66.9,59.0,76,29.90,10.0,SSE,15.0,-,N/A,,Mostly Cloudy,160,2012-11-10 13:53:00
8:53 AM,69.1,57.9,68,29.91,10.0,South,21.9,29.9,N/A,,Overcast,170,2012-11-10 14:53:00
9:04 AM,69.8,57.2,64,29.94,10.0,South,21.9,32.2,N/A,,Overcast,180,2012-11-10 15:04:00
9:53 AM,71.1,59.0,66,29.91,10.0,South,18.4,26.5,N/A,,Overcast,180,2012-11-10 15:53:00
10:12 AM,71.6,59.0,64,29.94,10.0,South,18.4,26.5,N/A,,Overcast,180,2012-11-10 16:12:00
10:20 AM,71.6,59.0,64,29.93,10.0,South,17.3,25.3,N/A,,Overcast,170,2012-11-10 16:20:00
10:53 AM,72.0,59.0,64,29.89,10.0,South,23.0,33.4,N/A,,Overcast,170,2012-11-10 16:53:00
11:53 AM,75.9,57.9,54,29.86,10.0,South,27.6,34.5,N/A,,Partly Cloudy,170,2012-11-10 17:53:00
12:53 PM,79.0,57.0,47,29.82,10.0,South,26.5,33.4,N/A,,Clear,180,2012-11-10 18:53:00
1:53 PM,80.1,57.0,45,29.79,10.0,South,24.2,36.8,N/A,,Clear,170,2012-11-10 19:53:00
2:53 PM,81.0,55.0,41,29.75,10.0,South,24.2,38.0,N/A,,Clear,170,2012-11-10 20:53:00
3:53 PM,81.0,54.0,39,29.74,10.0,South,24.2,35.7,N/A,,Clear,170,2012-11-10 21:53:00
4:53 PM,78.1,53.1,42,29.75,10.0,South,15.0,29.9,N/A,,Clear,170,2012-11-10 22:53:00
5:53 PM,75.9,54.0,46,29.75,10.0,SSE,16.1,29.9,N/A,,Clear,160,2012-11-10 23:53:00
6:53 PM,75.9,55.0,48,29.77,10.0,South,18.4,29.9,N/A,,Clear,170,2012-11-11 00:53:00
7:53 PM,73.9,57.0,55,29.76,10.0,SSE,16.1,31.1,N/A,,Clear,150,2012-11-11 01:53:00
8:53 PM,73.0,57.9,59,29.78,10.0,SSE,18.4,29.9,N/A,,Clear,160,2012-11-11 02:53:00
9:53 PM,71.6,57.2,60,29.82,10.0,South,21.9,29.9,N/A,,Clear,170,2012-11-11 03:53:00
10:53 PM,71.1,59.0,66,29.78,10.0,South,20.7,28.8,N/A,,Scattered Clouds,170,2012-11-11 04:53:00
11:53 PM,71.1,59.0,66,29.75,10.0,South,19.6,35.7,N/A,,Scattered Clouds,170,2012-11-11 05:53:00